Lawn, Canada
Current Conditions -  °F | °C
As of 7:00 PM on Monday 20 Oct 2014 (Local Time) from LFVP Reporting Station
Broken Clouds Broken Clouds  
Wind Chill: 39°   Ceiling: 5000
Heat Index: 48°   Visibility: 6mi
Dew Point: 43°   Wind: 31mph
Humidity: 82%   Direction: 250°WSW
Pressure: 29.68"   Gusts: NA
Location:  46.93°N, 55.55°W
Report Text: LFVP 202100Z 25027KT 9999 SCT020 BKN050 09/06 Q1005 NOSIG
Loading
Personal Weather Stations






























Interactive Weather Map
Tropical Storm Tracking
New forecast layout! Learn more

10-Day Weather Forecast

Advertisements
Track Severe Weather on mobile